sensor_id;sensor_type;location;lat;lon;timestamp;P1;durP1;ratioP1;P2;durP2;ratioP2
22415;SDS011;12204;50.600;4.608;2022-09-20T00:03:03;6.18;;;2.10;;
22415;SDS011;12204;50.600;4.608;2022-09-20T00:08:10;8.30;;;2.33;;
22415;SDS011;12204;50.600;4.608;2022-09-20T00:13:17;6.55;;;2.05;;
22415;SDS011;12204;50.600;4.608;2022-09-20T00:18:21;7.82;;;2.17;;
22415;SDS011;12204;50.600;4.608;2022-09-20T00:23:26;6.47;;;2.20;;
22415;SDS011;12204;50.600;4.608;2022-09-20T00:28:30;7.88;;;2.03;;
22415;SDS011;12204;50.600;4.608;2022-09-20T00:33:35;6.97;;;2.10;;
22415;SDS011;12204;50.600;4.608;2022-09-20T00:38:54;5.70;;;2.03;;
22415;SDS011;12204;50.600;4.608;2022-09-20T00:43:59;8.60;;;2.20;;
22415;SDS011;12204;50.600;4.608;2022-09-20T00:49:05;6.25;;;2.00;;
22415;SDS011;12204;50.600;4.608;2022-09-20T00:54:17;7.35;;;1.92;;
22415;SDS011;12204;50.600;4.608;2022-09-20T00:59:24;7.93;;;2.10;;
22415;SDS011;12204;50.600;4.608;2022-09-20T01:04:31;5.80;;;2.00;;
22415;SDS011;12204;50.600;4.608;2022-09-20T01:14:44;6.22;;;2.20;;
22415;SDS011;12204;50.600;4.608;2022-09-20T01:19:56;5.63;;;1.90;;
22415;SDS011;12204;50.600;4.608;2022-09-20T01:25:20;6.07;;;1.95;;
22415;SDS011;12204;50.600;4.608;2022-09-20T01:30:52;6.72;;;1.70;;
22415;SDS011;12204;50.600;4.608;2022-09-20T01:36:07;5.50;;;1.52;;
22415;SDS011;12204;50.600;4.608;2022-09-20T01:41:19;4.82;;;1.60;;
22415;SDS011;12204;50.600;4.608;2022-09-20T01:46:31;4.85;;;1.80;;
22415;SDS011;12204;50.600;4.608;2022-09-20T02:40:55;5.82;;;1.42;;
22415;SDS011;12204;50.600;4.608;2022-09-20T02:46:52;5.90;;;1.45;;
22415;SDS011;12204;50.600;4.608;2022-09-20T02:52:10;4.53;;;1.40;;
22415;SDS011;12204;50.600;4.608;2022-09-20T02:57:28;4.73;;;1.50;;
22415;SDS011;12204;50.600;4.608;2022-09-20T03:02:48;3.70;;;1.30;;
22415;SDS011;12204;50.600;4.608;2022-09-20T03:08:12;5.50;;;1.52;;
22415;SDS011;12204;50.600;4.608;2022-09-20T03:13:45;6.30;;;1.50;;
22415;SDS011;12204;50.600;4.608;2022-09-20T03:19:14;4.65;;;1.20;;
22415;SDS011;12204;50.600;4.608;2022-09-20T03:24:38;6.72;;;1.30;;
22415;SDS011;12204;50.600;4.608;2022-09-20T03:30:07;7.45;;;1.30;;
22415;SDS011;12204;50.600;4.608;2022-09-20T03:35:57;4.97;;;1.20;;
22415;SDS011;12204;50.600;4.608;2022-09-20T03:41:27;6.38;;;1.30;;
22415;SDS011;12204;50.600;4.608;2022-09-20T03:47:07;4.15;;;1.10;;
22415;SDS011;12204;50.600;4.608;2022-09-20T03:52:36;3.55;;;1.00;;
22415;SDS011;12204;50.600;4.608;2022-09-20T03:58:12;3.63;;;1.20;;
22415;SDS011;12204;50.600;4.608;2022-09-20T04:03:45;5.85;;;1.30;;
22415;SDS011;12204;50.600;4.608;2022-09-20T04:09:03;3.75;;;1.10;;
22415;SDS011;12204;50.600;4.608;2022-09-20T04:14:42;5.35;;;1.13;;
22415;SDS011;12204;50.600;4.608;2022-09-20T04:19:57;4.20;;;1.10;;
22415;SDS011;12204;50.600;4.608;2022-09-20T04:25:11;5.85;;;1.30;;
22415;SDS011;12204;50.600;4.608;2022-09-20T04:30:19;3.75;;;1.10;;
22415;SDS011;12204;50.600;4.608;2022-09-20T04:35:37;7.20;;;1.20;;
22415;SDS011;12204;50.600;4.608;2022-09-20T04:41:15;4.28;;;1.15;;
22415;SDS011;12204;50.600;4.608;2022-09-20T04:46:58;8.05;;;1.15;;
22415;SDS011;12204;50.600;4.608;2022-09-20T04:58:36;5.25;;;1.27;;
22415;SDS011;12204;50.600;4.608;2022-09-20T05:03:58;4.70;;;1.20;;
22415;SDS011;12204;50.600;4.608;2022-09-20T05:10:02;6.03;;;1.10;;
22415;SDS011;12204;50.600;4.608;2022-09-20T05:16:17;5.72;;;1.20;;
22415;SDS011;12204;50.600;4.608;2022-09-20T05:21:34;5.88;;;1.00;;
22415;SDS011;12204;50.600;4.608;2022-09-20T05:27:17;4.50;;;1.20;;
22415;SDS011;12204;50.600;4.608;2022-09-20T05:32:39;3.38;;;1.05;;
22415;SDS011;12204;50.600;4.608;2022-09-20T05:37:52;4.43;;;1.10;;
22415;SDS011;12204;50.600;4.608;2022-09-20T05:43:12;5.60;;;1.20;;
22415;SDS011;12204;50.600;4.608;2022-09-20T05:48:28;3.30;;;1.10;;
22415;SDS011;12204;50.600;4.608;2022-09-20T05:53:56;4.72;;;1.10;;
22415;SDS011;12204;50.600;4.608;2022-09-20T05:59:31;3.58;;;1.23;;
22415;SDS011;12204;50.600;4.608;2022-09-20T06:04:51;2.80;;;1.10;;
22415;SDS011;12204;50.600;4.608;2022-09-20T06:15:47;4.53;;;1.15;;
22415;SDS011;12204;50.600;4.608;2022-09-20T06:21:03;4.95;;;1.10;;
22415;SDS011;12204;50.600;4.608;2022-09-20T06:26:22;4.32;;;1.13;;
22415;SDS011;12204;50.600;4.608;2022-09-20T06:31:31;3.80;;;1.10;;
22415;SDS011;12204;50.600;4.608;2022-09-20T06:36:36;4.03;;;1.20;;
22415;SDS011;12204;50.600;4.608;2022-09-20T06:42:00;3.90;;;1.02;;
22415;SDS011;12204;50.600;4.608;2022-09-20T06:47:05;3.38;;;1.10;;
22415;SDS011;12204;50.600;4.608;2022-09-20T06:52:10;4.03;;;1.10;;
22415;SDS011;12204;50.600;4.608;2022-09-20T06:57:17;3.77;;;1.20;;
22415;SDS011;12204;50.600;4.608;2022-09-20T07:02:26;3.72;;;1.10;;
22415;SDS011;12204;50.600;4.608;2022-09-20T07:07:30;3.15;;;1.08;;
22415;SDS011;12204;50.600;4.608;2022-09-20T07:12:34;4.57;;;1.00;;
22415;SDS011;12204;50.600;4.608;2022-09-20T07:17:38;6.05;;;1.30;;
22415;SDS011;12204;50.600;4.608;2022-09-20T07:22:46;4.25;;;1.10;;
22415;SDS011;12204;50.600;4.608;2022-09-20T07:27:50;3.35;;;1.05;;
22415;SDS011;12204;50.600;4.608;2022-09-20T07:32:55;5.30;;;1.30;;
22415;SDS011;12204;50.600;4.608;2022-09-20T07:38:00;5.28;;;1.30;;
22415;SDS011;12204;50.600;4.608;2022-09-20T07:43:04;6.47;;;1.38;;
22415;SDS011;12204;50.600;4.608;2022-09-20T07:48:09;3.30;;;1.20;;
22415;SDS011;12204;50.600;4.608;2022-09-20T07:53:12;5.80;;;1.38;;
22415;SDS011;12204;50.600;4.608;2022-09-20T07:58:16;3.78;;;1.30;;
22415;SDS011;12204;50.600;4.608;2022-09-20T08:03:21;4.75;;;1.25;;
22415;SDS011;12204;50.600;4.608;2022-09-20T08:08:25;6.68;;;1.30;;
22415;SDS011;12204;50.600;4.608;2022-09-20T08:13:29;9.60;;;1.23;;
22415;SDS011;12204;50.600;4.608;2022-09-20T08:18:54;11.02;;;1.52;;
22415;SDS011;12204;50.600;4.608;2022-09-20T08:24:00;4.63;;;1.30;;
22415;SDS011;12204;50.600;4.608;2022-09-20T08:29:04;7.03;;;1.70;;
22415;SDS011;12204;50.600;4.608;2022-09-20T08:34:11;7.28;;;1.50;;
22415;SDS011;12204;50.600;4.608;2022-09-20T08:39:15;8.02;;;1.55;;
22415;SDS011;12204;50.600;4.608;2022-09-20T08:44:42;9.68;;;1.70;;
22415;SDS011;12204;50.600;4.608;2022-09-20T08:50:04;9.00;;;1.60;;
22415;SDS011;12204;50.600;4.608;2022-09-20T08:55:17;9.98;;;2.03;;
22415;SDS011;12204;50.600;4.608;2022-09-20T09:00:25;8.00;;;1.80;;
22415;SDS011;12204;50.600;4.608;2022-09-20T09:05:35;10.18;;;1.73;;
22415;SDS011;12204;50.600;4.608;2022-09-20T09:10:45;9.75;;;1.83;;
22415;SDS011;12204;50.600;4.608;2022-09-20T09:15:56;8.45;;;1.83;;
22415;SDS011;12204;50.600;4.608;2022-09-20T09:26:14;11.30;;;1.70;;
22415;SDS011;12204;50.600;4.608;2022-09-20T09:31:23;7.65;;;1.75;;
22415;SDS011;12204;50.600;4.608;2022-09-20T09:36:29;7.00;;;1.63;;
22415;SDS011;12204;50.600;4.608;2022-09-20T09:41:34;5.35;;;1.67;;
22415;SDS011;12204;50.600;4.608;2022-09-20T09:46:37;6.93;;;1.50;;
22415;SDS011;12204;50.600;4.608;2022-09-20T09:51:43;7.13;;;1.58;;
22415;SDS011;12204;50.600;4.608;2022-09-20T09:57:10;7.68;;;1.35;;
22415;SDS011;12204;50.600;4.608;2022-09-20T10:02:48;5.90;;;1.33;;
22415;SDS011;12204;50.600;4.608;2022-09-20T10:08:21;7.15;;;1.23;;
22415;SDS011;12204;50.600;4.608;2022-09-20T10:13:35;5.93;;;1.30;;
22415;SDS011;12204;50.600;4.608;2022-09-20T10:18:50;7.82;;;1.27;;
22415;SDS011;12204;50.600;4.608;2022-09-20T10:24:06;4.88;;;1.30;;
22415;SDS011;12204;50.600;4.608;2022-09-20T10:29:35;4.75;;;1.35;;
22415;SDS011;12204;50.600;4.608;2022-09-20T10:35:02;4.13;;;1.20;;
22415;SDS011;12204;50.600;4.608;2022-09-20T10:40:22;6.25;;;1.45;;
22415;SDS011;12204;50.600;4.608;2022-09-20T10:45:50;5.28;;;1.35;;
22415;SDS011;12204;50.600;4.608;2022-09-20T10:51:34;6.13;;;1.90;;
22415;SDS011;12204;50.600;4.608;2022-09-20T10:56:48;8.68;;;2.33;;
22415;SDS011;12204;50.600;4.608;2022-09-20T11:02:16;8.05;;;2.10;;
22415;SDS011;12204;50.600;4.608;2022-09-20T11:07:45;9.20;;;1.92;;
22415;SDS011;12204;50.600;4.608;2022-09-20T11:13:04;7.40;;;1.73;;
22415;SDS011;12204;50.600;4.608;2022-09-20T11:18:21;6.07;;;1.80;;
22415;SDS011;12204;50.600;4.608;2022-09-20T11:23:38;6.85;;;2.00;;
22415;SDS011;12204;50.600;4.608;2022-09-20T11:28:53;7.78;;;1.73;;
22415;SDS011;12204;50.600;4.608;2022-09-20T11:34:06;6.00;;;1.50;;
22415;SDS011;12204;50.600;4.608;2022-09-20T11:39:19;6.05;;;1.58;;
22415;SDS011;12204;50.600;4.608;2022-09-20T11:44:31;5.15;;;1.73;;
22415;SDS011;12204;50.600;4.608;2022-09-20T11:49:47;6.18;;;1.52;;
22415;SDS011;12204;50.600;4.608;2022-09-20T11:55:35;6.05;;;1.60;;
22415;SDS011;12204;50.600;4.608;2022-09-20T12:00:46;5.47;;;1.30;;
22415;SDS011;12204;50.600;4.608;2022-09-20T12:05:55;4.82;;;1.42;;
22415;SDS011;12204;50.600;4.608;2022-09-20T12:11:03;7.63;;;1.75;;
22415;SDS011;12204;50.600;4.608;2022-09-20T12:16:14;7.07;;;1.40;;
22415;SDS011;12204;50.600;4.608;2022-09-20T12:32:59;5.43;;;1.50;;
22415;SDS011;12204;50.600;4.608;2022-09-20T12:38:15;4.55;;;1.50;;
22415;SDS011;12204;50.600;4.608;2022-09-20T12:43:19;4.63;;;1.40;;
22415;SDS011;12204;50.600;4.608;2022-09-20T12:48:27;6.38;;;1.50;;
22415;SDS011;12204;50.600;4.608;2022-09-20T12:53:38;7.50;;;1.40;;
22415;SDS011;12204;50.600;4.608;2022-09-20T12:58:47;4.75;;;1.30;;
22415;SDS011;12204;50.600;4.608;2022-09-20T13:10:05;4.10;;;1.40;;
22415;SDS011;12204;50.600;4.608;2022-09-20T13:15:27;4.88;;;1.48;;
22415;SDS011;12204;50.600;4.608;2022-09-20T13:20:34;5.18;;;1.40;;
22415;SDS011;12204;50.600;4.608;2022-09-20T13:25:40;5.63;;;1.33;;
22415;SDS011;12204;50.600;4.608;2022-09-20T13:30:45;4.90;;;1.30;;
22415;SDS011;12204;50.600;4.608;2022-09-20T13:35:51;4.22;;;1.30;;
22415;SDS011;12204;50.600;4.608;2022-09-20T13:40:58;4.40;;;1.40;;
22415;SDS011;12204;50.600;4.608;2022-09-20T13:46:10;4.70;;;1.30;;
22415;SDS011;12204;50.600;4.608;2022-09-20T13:51:18;4.78;;;1.38;;
22415;SDS011;12204;50.600;4.608;2022-09-20T13:56:27;3.58;;;1.30;;
22415;SDS011;12204;50.600;4.608;2022-09-20T14:01:33;5.03;;;1.48;;
22415;SDS011;12204;50.600;4.608;2022-09-20T14:06:39;4.50;;;1.33;;
22415;SDS011;12204;50.600;4.608;2022-09-20T14:11:43;4.95;;;1.30;;
22415;SDS011;12204;50.600;4.608;2022-09-20T14:16:48;5.25;;;1.40;;
22415;SDS011;12204;50.600;4.608;2022-09-20T14:21:56;4.40;;;1.38;;
22415;SDS011;12204;50.600;4.608;2022-09-20T14:27:05;4.03;;;1.30;;
22415;SDS011;12204;50.600;4.608;2022-09-20T14:32:24;4.82;;;1.40;;
22415;SDS011;12204;50.600;4.608;2022-09-20T14:37:42;6.80;;;1.55;;
22415;SDS011;12204;50.600;4.608;2022-09-20T14:42:49;5.80;;;1.60;;
22415;SDS011;12204;50.600;4.608;2022-09-20T14:47:59;4.35;;;1.40;;
22415;SDS011;12204;50.600;4.608;2022-09-20T14:53:25;4.68;;;1.60;;
22415;SDS011;12204;50.600;4.608;2022-09-20T14:58:30;7.65;;;1.92;;
22415;SDS011;12204;50.600;4.608;2022-09-20T15:03:35;9.52;;;1.63;;
22415;SDS011;12204;50.600;4.608;2022-09-20T15:13:47;28.50;;;3.47;;
22415;SDS011;12204;50.600;4.608;2022-09-20T15:18:51;25.40;;;3.50;;
22415;SDS011;12204;50.600;4.608;2022-09-20T15:23:56;22.25;;;3.08;;
22415;SDS011;12204;50.600;4.608;2022-09-20T15:29:00;27.10;;;3.10;;
22415;SDS011;12204;50.600;4.608;2022-09-20T15:34:04;18.77;;;2.83;;
22415;SDS011;12204;50.600;4.608;2022-09-20T15:39:09;16.33;;;2.50;;
22415;SDS011;12204;50.600;4.608;2022-09-20T15:44:14;20.17;;;2.50;;
22415;SDS011;12204;50.600;4.608;2022-09-20T15:49:18;20.35;;;2.38;;
22415;SDS011;12204;50.600;4.608;2022-09-20T15:54:24;14.30;;;2.35;;
22415;SDS011;12204;50.600;4.608;2022-09-20T15:59:28;17.23;;;2.00;;
22415;SDS011;12204;50.600;4.608;2022-09-20T16:04:33;15.50;;;2.10;;
22415;SDS011;12204;50.600;4.608;2022-09-20T16:09:38;16.48;;;2.15;;
22415;SDS011;12204;50.600;4.608;2022-09-20T16:14:43;14.32;;;2.20;;
22415;SDS011;12204;50.600;4.608;2022-09-20T16:19:47;10.30;;;1.70;;
22415;SDS011;12204;50.600;4.608;2022-09-20T16:24:52;7.95;;;1.50;;
22415;SDS011;12204;50.600;4.608;2022-09-20T16:29:56;11.20;;;1.70;;
22415;SDS011;12204;50.600;4.608;2022-09-20T16:35:00;7.65;;;1.48;;
22415;SDS011;12204;50.600;4.608;2022-09-20T16:40:09;6.82;;;1.40;;
22415;SDS011;12204;50.600;4.608;2022-09-20T16:45:15;9.73;;;1.60;;
22415;SDS011;12204;50.600;4.608;2022-09-20T16:50:19;5.40;;;1.20;;
22415;SDS011;12204;50.600;4.608;2022-09-20T16:55:24;9.10;;;1.70;;
22415;SDS011;12204;50.600;4.608;2022-09-20T17:00:29;6.88;;;1.50;;
22415;SDS011;12204;50.600;4.608;2022-09-20T17:05:34;6.18;;;1.50;;
22415;SDS011;12204;50.600;4.608;2022-09-20T17:10:39;7.90;;;1.42;;
22415;SDS011;12204;50.600;4.608;2022-09-20T17:15:43;4.68;;;1.38;;
22415;SDS011;12204;50.600;4.608;2022-09-20T17:20:49;8.90;;;1.52;;
22415;SDS011;12204;50.600;4.608;2022-09-20T17:26:01;7.85;;;1.60;;
22415;SDS011;12204;50.600;4.608;2022-09-20T17:31:08;4.30;;;1.30;;
22415;SDS011;12204;50.600;4.608;2022-09-20T17:36:16;5.05;;;1.50;;
22415;SDS011;12204;50.600;4.608;2022-09-20T17:41:24;8.77;;;1.33;;
22415;SDS011;12204;50.600;4.608;2022-09-20T17:46:29;7.30;;;1.40;;
22415;SDS011;12204;50.600;4.608;2022-09-20T17:51:34;4.43;;;1.30;;
22415;SDS011;12204;50.600;4.608;2022-09-20T17:56:42;6.47;;;1.50;;
22415;SDS011;12204;50.600;4.608;2022-09-20T18:01:49;4.75;;;1.20;;
22415;SDS011;12204;50.600;4.608;2022-09-20T18:06:54;5.45;;;1.27;;
22415;SDS011;12204;50.600;4.608;2022-09-20T18:12:00;5.45;;;1.38;;
22415;SDS011;12204;50.600;4.608;2022-09-20T18:17:05;6.22;;;1.20;;
22415;SDS011;12204;50.600;4.608;2022-09-20T18:22:09;5.45;;;1.13;;
22415;SDS011;12204;50.600;4.608;2022-09-20T18:27:15;5.18;;;1.30;;
22415;SDS011;12204;50.600;4.608;2022-09-20T18:32:18;4.15;;;1.10;;
22415;SDS011;12204;50.600;4.608;2022-09-20T18:37:22;4.03;;;1.15;;
22415;SDS011;12204;50.600;4.608;2022-09-20T18:42:27;4.35;;;1.10;;
22415;SDS011;12204;50.600;4.608;2022-09-20T18:47:31;3.05;;;1.00;;
22415;SDS011;12204;50.600;4.608;2022-09-20T18:52:34;3.95;;;1.02;;
22415;SDS011;12204;50.600;4.608;2022-09-20T18:57:41;5.25;;;1.23;;
22415;SDS011;12204;50.600;4.608;2022-09-20T19:02:49;3.88;;;1.20;;
22415;SDS011;12204;50.600;4.608;2022-09-20T19:08:16;4.10;;;1.17;;
22415;SDS011;12204;50.600;4.608;2022-09-20T19:13:32;3.57;;;1.10;;
22415;SDS011;12204;50.600;4.608;2022-09-20T19:18:49;4.90;;;1.20;;
22415;SDS011;12204;50.600;4.608;2022-09-20T19:30:14;3.60;;;1.17;;
22415;SDS011;12204;50.600;4.608;2022-09-20T19:35:21;3.72;;;1.30;;
22415;SDS011;12204;50.600;4.608;2022-09-20T19:40:33;4.60;;;1.40;;
22415;SDS011;12204;50.600;4.608;2022-09-20T19:45:50;5.03;;;1.33;;
22415;SDS011;12204;50.600;4.608;2022-09-20T19:51:08;4.50;;;1.38;;
22415;SDS011;12204;50.600;4.608;2022-09-20T19:56:17;7.07;;;1.43;;
22415;SDS011;12204;50.600;4.608;2022-09-20T20:01:29;4.10;;;1.27;;
22415;SDS011;12204;50.600;4.608;2022-09-20T20:06:35;4.13;;;1.37;;
22415;SDS011;12204;50.600;4.608;2022-09-20T20:11:49;5.07;;;1.27;;
22415;SDS011;12204;50.600;4.608;2022-09-20T20:17:10;5.30;;;1.50;;
22415;SDS011;12204;50.600;4.608;2022-09-20T20:22:36;6.45;;;1.52;;
22415;SDS011;12204;50.600;4.608;2022-09-20T20:28:23;4.25;;;1.33;;
22415;SDS011;12204;50.600;4.608;2022-09-20T20:33:28;5.63;;;1.80;;
22415;SDS011;12204;50.600;4.608;2022-09-20T20:38:34;4.00;;;1.50;;
22415;SDS011;12204;50.600;4.608;2022-09-20T20:43:40;4.45;;;1.55;;
22415;SDS011;12204;50.600;4.608;2022-09-20T20:53:51;4.72;;;1.40;;
22415;SDS011;12204;50.600;4.608;2022-09-20T21:04:06;5.10;;;1.40;;
22415;SDS011;12204;50.600;4.608;2022-09-20T21:09:11;5.93;;;1.50;;
22415;SDS011;12204;50.600;4.608;2022-09-20T21:14:15;6.50;;;1.50;;
22415;SDS011;12204;50.600;4.608;2022-09-20T21:19:20;4.80;;;1.50;;
22415;SDS011;12204;50.600;4.608;2022-09-20T21:24:24;4.40;;;1.40;;
22415;SDS011;12204;50.600;4.608;2022-09-20T21:29:27;3.65;;;1.30;;
22415;SDS011;12204;50.600;4.608;2022-09-20T21:34:33;5.05;;;1.40;;
22415;SDS011;12204;50.600;4.608;2022-09-20T21:39:37;3.50;;;1.27;;
22415;SDS011;12204;50.600;4.608;2022-09-20T21:44:40;3.95;;;1.50;;
22415;SDS011;12204;50.600;4.608;2022-09-20T21:49:45;3.67;;;1.45;;
22415;SDS011;12204;50.600;4.608;2022-09-20T21:54:49;5.40;;;1.58;;
22415;SDS011;12204;50.600;4.608;2022-09-20T21:59:52;9.90;;;1.60;;
22415;SDS011;12204;50.600;4.608;2022-09-20T22:04:57;10.07;;;1.80;;
22415;SDS011;12204;50.600;4.608;2022-09-20T22:10:01;5.72;;;1.67;;
22415;SDS011;12204;50.600;4.608;2022-09-20T22:15:05;7.13;;;1.70;;
22415;SDS011;12204;50.600;4.608;2022-09-20T22:20:12;8.35;;;1.98;;
22415;SDS011;12204;50.600;4.608;2022-09-20T22:25:16;7.00;;;1.92;;
22415;SDS011;12204;50.600;4.608;2022-09-20T22:30:20;7.78;;;2.00;;
22415;SDS011;12204;50.600;4.608;2022-09-20T22:35:26;6.90;;;1.95;;
22415;SDS011;12204;50.600;4.608;2022-09-20T22:40:30;7.47;;;2.00;;
22415;SDS011;12204;50.600;4.608;2022-09-20T22:45:34;7.88;;;2.50;;
22415;SDS011;12204;50.600;4.608;2022-09-20T22:50:40;6.93;;;2.00;;
22415;SDS011;12204;50.600;4.608;2022-09-20T22:55:44;6.57;;;2.17;;
22415;SDS011;12204;50.600;4.608;2022-09-20T23:00:48;6.95;;;2.00;;
22415;SDS011;12204;50.600;4.608;2022-09-20T23:05:53;6.95;;;2.25;;
22415;SDS011;12204;50.600;4.608;2022-09-20T23:10:58;7.85;;;2.40;;
22415;SDS011;12204;50.600;4.608;2022-09-20T23:16:11;6.22;;;2.25;;
22415;SDS011;12204;50.600;4.608;2022-09-20T23:21:20;7.32;;;2.10;;
22415;SDS011;12204;50.600;4.608;2022-09-20T23:26:25;8.35;;;2.22;;
22415;SDS011;12204;50.600;4.608;2022-09-20T23:31:32;7.83;;;2.30;;
22415;SDS011;12204;50.600;4.608;2022-09-20T23:36:39;8.07;;;2.40;;
22415;SDS011;12204;50.600;4.608;2022-09-20T23:41:44;5.70;;;2.20;;
22415;SDS011;12204;50.600;4.608;2022-09-20T23:46:51;7.30;;;2.53;;
22415;SDS011;12204;50.600;4.608;2022-09-20T23:51:57;8.27;;;2.35;;
22415;SDS011;12204;50.600;4.608;2022-09-20T23:57:01;6.03;;;2.22;;
